createdAt,value
2018-05-13T00:00:07.439Z,27.97
2018-05-13T00:01:12.377Z,29.77
2018-05-13T00:02:17.414Z,29.40
2018-05-13T00:03:21.793Z,26.40
2018-05-13T00:04:26.024Z,27.53
2018-05-13T00:05:30.209Z,27.00
2018-05-13T00:06:34.389Z,25.80
2018-05-13T00:07:38.570Z,28.17
2018-05-13T00:08:42.814Z,27.83
2018-05-13T00:09:47.023Z,27.97
2018-05-13T00:10:51.970Z,30.43
2018-05-13T00:11:56.165Z,27.80
2018-05-13T00:13:00.478Z,28.77
2018-05-13T00:14:04.731Z,28.77
2018-05-13T00:15:08.926Z,28.30
2018-05-13T00:16:13.121Z,28.47
2018-05-13T00:17:17.327Z,28.13
2018-05-13T00:18:21.673Z,27.40
2018-05-13T00:19:25.869Z,28.10
2018-05-13T00:20:30.101Z,28.83
2018-05-13T00:21:34.269Z,27.97
2018-05-13T00:22:38.453Z,28.57
2018-05-13T00:23:43.446Z,26.27
2018-05-13T00:24:47.638Z,28.27
2018-05-13T00:25:51.823Z,29.23
2018-05-13T00:26:56.131Z,30.40
2018-05-13T00:28:01.070Z,25.60
2018-05-13T00:29:05.236Z,28.40
2018-05-13T00:30:09.404Z,28.07
2018-05-13T00:31:13.591Z,28.40
2018-05-13T00:32:17.785Z,29.97
2018-05-13T00:33:22.728Z,29.10
2018-05-13T00:34:26.921Z,28.43
2018-05-13T00:35:31.862Z,26.10
2018-05-13T00:36:36.807Z,27.73
2018-05-13T00:37:41.010Z,27.93
2018-05-13T00:38:45.188Z,28.20
2018-05-13T00:39:49.365Z,29.37
2018-05-13T00:40:53.542Z,27.03
2018-05-13T00:41:57.757Z,28.07
2018-05-13T00:43:01.938Z,27.20
2018-05-13T00:44:06.884Z,27.17
2018-05-13T00:45:11.817Z,28.20
2018-05-13T00:46:15.994Z,27.97
2018-05-13T00:47:20.306Z,27.00
2018-05-13T00:48:24.473Z,27.73
2018-05-13T00:49:28.654Z,27.70
2018-05-13T00:50:32.852Z,28.50
2018-05-13T00:51:37.802Z,28.70
2018-05-13T00:52:41.997Z,27.20
2018-05-13T00:53:46.945Z,28.17
2018-05-13T00:54:56.043Z,27.20
2018-05-13T00:56:00.981Z,27.63
2018-05-13T00:57:05.941Z,27.10
2018-05-13T00:58:10.126Z,26.30
2018-05-13T00:59:14.292Z,26.77
2018-05-13T01:00:18.466Z,28.90
2018-05-13T01:01:22.633Z,28.40
2018-05-13T01:02:27.599Z,26.30
2018-05-13T01:03:31.792Z,25.90
2018-05-13T01:04:35.969Z,25.80
2018-05-13T01:05:40.140Z,27.80
2018-05-13T01:06:44.312Z,27.10
2018-05-13T01:07:49.269Z,28.13
2018-05-13T01:08:53.438Z,26.20
2018-05-13T01:09:58.390Z,27.17
2018-05-13T01:11:02.583Z,28.40
2018-05-13T01:12:07.516Z,26.87
2018-05-13T01:13:12.469Z,26.20
2018-05-13T01:14:16.670Z,26.17
2018-05-13T01:15:20.840Z,27.17
2018-05-13T01:16:25.053Z,27.43
2018-05-13T01:17:29.220Z,27.67
2018-05-13T01:18:33.478Z,26.93
2018-05-13T01:19:37.721Z,27.20
2018-05-13T01:20:41.902Z,27.43
2018-05-13T01:21:46.218Z,27.10
2018-05-13T01:22:50.385Z,28.17
2018-05-13T01:23:54.552Z,29.63
2018-05-13T01:24:59.503Z,28.90
2018-05-13T01:26:03.690Z,27.23
2018-05-13T01:27:08.309Z,28.40
2018-05-13T01:28:13.254Z,28.00
2018-05-13T01:29:17.426Z,26.10
2018-05-13T01:30:21.604Z,29.53
2018-05-13T01:31:25.790Z,28.80
2018-05-13T01:32:29.997Z,28.90
2018-05-13T01:33:34.169Z,27.63
2018-05-13T01:34:38.354Z,28.33
2018-05-13T01:35:42.546Z,27.10
2018-05-13T01:36:47.138Z,28.47
2018-05-13T01:37:51.309Z,29.20
2018-05-13T01:38:55.480Z,25.30
2018-05-13T01:39:59.658Z,27.43
2018-05-13T01:41:03.865Z,27.37
2018-05-13T01:42:09.282Z,28.00
2018-05-13T01:43:13.453Z,28.53
2018-05-13T01:44:17.634Z,25.80
2018-05-13T01:45:21.810Z,27.00
2018-05-13T01:46:25.990Z,27.50
2018-05-13T01:47:30.201Z,27.50
2018-05-13T01:48:35.164Z,28.23
2018-05-13T01:49:39.338Z,26.63
2018-05-13T01:50:43.633Z,28.90
2018-05-13T01:51:47.809Z,26.67
2018-05-13T01:52:52.762Z,27.07
2018-05-13T01:53:56.936Z,27.30
2018-05-13T01:55:01.906Z,27.20
2018-05-13T01:56:06.506Z,27.43
2018-05-13T01:57:11.501Z,28.60
2018-05-13T01:58:15.678Z,29.73
2018-05-13T01:59:19.849Z,26.80
2018-05-13T02:00:24.795Z,28.53
2018-05-13T02:01:29.006Z,27.90
2018-05-13T02:02:33.176Z,27.17
2018-05-13T02:03:37.354Z,25.20
2018-05-13T02:04:41.561Z,26.27
2018-05-13T02:05:45.733Z,27.50
2018-05-13T02:06:50.814Z,26.43
2018-05-13T02:07:54.977Z,27.03
2018-05-13T02:08:59.149Z,25.90
2018-05-13T02:10:03.341Z,27.23
2018-05-13T02:11:07.538Z,27.77
2018-05-13T02:12:11.769Z,27.37
2018-05-13T02:13:15.945Z,27.07
2018-05-13T02:14:20.125Z,27.70
2018-05-13T02:15:25.070Z,27.33
2018-05-13T02:16:29.236Z,27.43
2018-05-13T02:17:33.786Z,28.00
2018-05-13T02:18:38.734Z,26.40
2018-05-13T02:19:42.910Z,26.83
2018-05-13T02:20:47.166Z,27.57
2018-05-13T02:21:51.281Z,26.57
2018-05-13T02:22:55.611Z,27.03
2018-05-13T02:23:59.805Z,27.30
2018-05-13T02:25:04.005Z,28.10
2018-05-13T02:26:08.177Z,27.67
2018-05-13T02:27:13.117Z,28.40
2018-05-13T02:28:18.404Z,26.50
2018-05-13T02:29:22.593Z,27.87
2018-05-13T02:30:26.765Z,27.30
2018-05-13T02:31:31.709Z,28.53
2018-05-13T02:32:35.894Z,24.80
2018-05-13T02:33:40.102Z,28.57
2018-05-13T02:34:44.278Z,28.40
2018-05-13T02:35:48.505Z,28.97
2018-05-13T02:36:52.678Z,28.20
2018-05-13T02:37:56.853Z,27.70
2018-05-13T02:39:01.897Z,28.70
2018-05-13T02:40:06.005Z,29.40
2018-05-13T02:41:11.030Z,27.50
2018-05-13T02:42:15.233Z,28.43
2018-05-13T02:43:20.180Z,28.33
2018-05-13T02:44:24.349Z,27.00
2018-05-13T02:45:28.517Z,27.77
2018-05-13T02:46:32.722Z,30.10
2018-05-13T02:47:36.906Z,28.77
2018-05-13T02:48:41.879Z,26.60
2018-05-13T02:49:46.061Z,26.63
2018-05-13T02:50:50.243Z,27.20
2018-05-13T02:51:54.490Z,29.30
2018-05-13T02:52:58.677Z,29.37
2018-05-13T02:54:03.630Z,29.23
2018-05-13T02:55:07.802Z,28.10
2018-05-13T02:56:12.093Z,28.53
2018-05-13T02:57:16.304Z,27.80
2018-05-13T02:58:20.502Z,28.47
2018-05-13T02:59:24.681Z,29.13
2018-05-13T03:00:28.901Z,29.40
2018-05-13T03:01:33.074Z,28.13
2018-05-13T03:02:37.423Z,29.43
2018-05-13T03:03:41.609Z,28.43
2018-05-13T03:04:45.796Z,29.93
2018-05-13T03:05:49.974Z,27.37
2018-05-13T03:06:54.136Z,29.47
2018-05-13T03:07:58.395Z,30.33
2018-05-13T03:09:02.592Z,29.83
2018-05-13T03:10:06.773Z,30.13
2018-05-13T03:11:10.950Z,28.33
2018-05-13T03:12:15.129Z,29.13
2018-05-13T03:13:19.336Z,29.10
2018-05-13T03:14:23.537Z,29.93
2018-05-13T03:15:27.732Z,29.73
2018-05-13T03:16:31.905Z,29.83
2018-05-13T03:17:36.088Z,28.60
2018-05-13T03:18:40.761Z,30.90
2018-05-13T03:19:45.711Z,29.03
2018-05-13T03:20:49.897Z,28.83
2018-05-13T03:21:54.834Z,28.80
2018-05-13T03:22:59.015Z,27.37
2018-05-13T03:24:03.212Z,29.97
2018-05-13T03:25:07.385Z,29.40
2018-05-13T03:26:11.571Z,28.87
2018-05-13T03:27:16.902Z,29.90
2018-05-13T03:28:21.843Z,31.57
2018-05-13T03:29:26.013Z,30.07
2018-05-13T03:30:30.198Z,29.23
2018-05-13T03:31:34.374Z,29.43
2018-05-13T03:32:39.034Z,29.93
2018-05-13T03:33:43.227Z,28.97
2018-05-13T03:34:47.397Z,29.50
2018-05-13T03:35:52.346Z,28.60
2018-05-13T03:36:56.516Z,30.77
2018-05-13T03:38:00.813Z,29.20
2018-05-13T03:39:05.008Z,29.70
2018-05-13T03:40:09.177Z,30.40
2018-05-13T03:41:14.122Z,29.50
2018-05-13T03:42:18.297Z,29.23
2018-05-13T03:43:22.498Z,28.87
2018-05-13T03:44:26.665Z,29.27
2018-05-13T03:45:30.870Z,30.80
2018-05-13T03:46:35.041Z,28.83
2018-05-13T03:47:40.049Z,29.30
2018-05-13T03:48:44.234Z,29.13
2018-05-13T03:49:48.428Z,29.73
2018-05-13T03:50:52.607Z,29.97
2018-05-13T03:51:57.540Z,28.93
2018-05-13T03:53:02.978Z,28.83
2018-05-13T03:54:07.921Z,31.00
2018-05-13T03:55:12.092Z,30.03
2018-05-13T03:56:16.339Z,30.73
2018-05-13T03:57:20.513Z,29.77
2018-05-13T03:58:24.959Z,30.80
2018-05-13T03:59:29.902Z,29.57
2018-05-13T04:00:34.086Z,30.80
2018-05-13T04:01:39.031Z,30.67
2018-05-13T04:02:43.208Z,28.47
2018-05-13T04:03:47.749Z,30.60
2018-05-13T04:04:51.925Z,30.50
2018-05-13T04:05:56.107Z,31.80
2018-05-13T04:07:00.281Z,29.20
2018-05-13T04:10:19.270Z,29.53
2018-05-13T04:11:41.248Z,28.33
2018-05-13T04:13:02.982Z,32.30
2018-05-13T04:15:50.867Z,28.60
2018-05-13T04:16:55.810Z,29.17
2018-05-13T04:17:59.985Z,29.67
2018-05-13T04:19:04.941Z,29.67
2018-05-13T04:20:09.145Z,31.00
2018-05-13T04:21:14.090Z,29.27
2018-05-13T04:22:18.256Z,30.20
2018-05-13T04:23:22.433Z,29.57
2018-05-13T04:24:26.694Z,28.80
2018-05-13T04:25:30.842Z,29.70
2018-05-13T04:26:35.008Z,29.10
2018-05-13T04:27:39.949Z,30.50
2018-05-13T04:28:44.895Z,27.70
2018-05-13T04:29:49.094Z,29.17
2018-05-13T04:30:53.273Z,28.90
2018-05-13T04:31:57.487Z,28.23
2018-05-13T04:33:01.653Z,30.53
2018-05-13T04:34:05.882Z,29.43
2018-05-13T04:35:10.073Z,30.37
2018-05-13T04:36:14.364Z,28.17
2018-05-13T04:37:18.532Z,30.13
2018-05-13T04:38:22.713Z,30.03
2018-05-13T04:39:27.022Z,28.17
2018-05-13T04:40:31.194Z,29.20
2018-05-13T04:41:36.134Z,30.27
2018-05-13T04:42:40.339Z,27.67
2018-05-13T04:43:44.504Z,27.37
2018-05-13T04:44:48.701Z,29.33
2018-05-13T04:45:53.278Z,27.07
2018-05-13T04:46:57.990Z,30.20
2018-05-13T04:48:02.941Z,30.00
2018-05-13T04:49:07.117Z,29.90
2018-05-13T04:50:12.061Z,28.50
2018-05-13T04:51:16.996Z,29.50
2018-05-13T04:52:21.198Z,27.63
2018-05-13T04:53:26.137Z,28.60
2018-05-13T04:54:30.319Z,30.40
2018-05-13T04:55:35.262Z,29.50
2018-05-13T04:56:40.222Z,27.63
2018-05-13T04:57:44.389Z,28.97
2018-05-13T04:58:49.356Z,27.87
2018-05-13T04:59:53.536Z,28.47
2018-05-13T05:00:58.504Z,28.83
2018-05-13T05:02:02.685Z,30.23
2018-05-13T05:03:06.865Z,30.63
2018-05-13T05:04:11.093Z,28.90
2018-05-13T05:05:16.097Z,28.50
2018-05-13T05:06:20.268Z,27.60
2018-05-13T05:07:24.443Z,28.73
2018-05-13T05:08:28.609Z,27.97
2018-05-13T05:09:32.921Z,28.00
2018-05-13T05:10:37.118Z,30.70
2018-05-13T05:11:41.289Z,28.60
2018-05-13T05:12:46.237Z,27.77
2018-05-13T05:13:50.408Z,27.00
2018-05-13T05:14:54.606Z,28.87
2018-05-13T05:15:58.785Z,29.63
2018-05-13T05:17:02.952Z,29.23
2018-05-13T05:18:07.908Z,29.10
2018-05-13T05:19:12.090Z,28.97
2018-05-13T05:20:17.133Z,26.40
2018-05-13T05:21:21.350Z,26.90
2018-05-13T05:22:25.524Z,27.80
2018-05-13T05:23:29.694Z,26.50
2018-05-13T05:24:34.422Z,27.50
2018-05-13T05:25:38.588Z,26.83
2018-05-13T05:26:42.902Z,28.07
2018-05-13T05:27:47.878Z,27.47
2018-05-13T05:28:52.058Z,27.30
2018-05-13T05:29:56.243Z,28.60
2018-05-13T05:31:01.185Z,26.87
2018-05-13T05:32:05.374Z,26.30
2018-05-13T05:33:09.561Z,25.90
2018-05-13T05:34:13.802Z,28.73
2018-05-13T05:35:17.941Z,28.73
2018-05-13T05:36:22.137Z,26.67
2018-05-13T05:37:26.317Z,28.87
2018-05-13T05:38:30.500Z,28.50
2018-05-13T05:39:34.676Z,26.23
2018-05-13T05:40:38.896Z,27.50
2018-05-13T05:41:43.064Z,27.80
2018-05-13T05:42:47.997Z,27.90
2018-05-13T05:43:52.938Z,29.17
2018-05-13T05:44:57.971Z,28.40
2018-05-13T05:46:02.185Z,27.47
2018-05-13T05:47:07.295Z,29.23
2018-05-13T05:48:12.261Z,25.80
2018-05-13T05:49:16.441Z,27.43
2018-05-13T05:50:21.381Z,26.57
2018-05-13T05:51:25.592Z,28.53
2018-05-13T05:52:29.765Z,27.20
2018-05-13T05:53:34.423Z,26.17
2018-05-13T05:54:38.599Z,27.13
2018-05-13T05:55:42.765Z,25.90
2018-05-13T05:56:46.945Z,26.13
2018-05-13T05:57:51.881Z,27.60
2018-05-13T05:58:56.075Z,26.97
2018-05-13T06:00:00.321Z,26.93
2018-05-13T06:01:04.489Z,27.67
2018-05-13T06:02:09.437Z,27.93
2018-05-13T06:03:14.436Z,26.80
2018-05-13T06:04:18.568Z,28.70
2018-05-13T06:05:23.529Z,27.63
2018-05-13T06:06:27.714Z,26.70
2018-05-13T06:07:31.886Z,27.67
2018-05-13T06:08:36.073Z,28.80
2018-05-13T06:09:40.257Z,28.43
2018-05-13T06:10:44.567Z,28.00
2018-05-13T06:11:48.745Z,27.50
2018-05-13T06:12:52.918Z,29.63
2018-05-13T06:13:57.107Z,27.00
2018-05-13T06:15:01.281Z,29.47
2018-05-13T06:16:06.843Z,29.43
2018-05-13T06:17:11.017Z,29.77
2018-05-13T06:18:15.211Z,27.63
2018-05-13T06:19:19.403Z,27.97
2018-05-13T06:20:23.577Z,29.53
2018-05-13T06:21:28.545Z,29.97
2018-05-13T06:22:32.927Z,31.40
2018-05-13T06:23:37.101Z,30.47
2018-05-13T06:24:42.069Z,30.93
2018-05-13T06:25:46.240Z,30.83
2018-05-13T06:26:50.493Z,30.47
2018-05-13T06:27:54.695Z,32.03
2018-05-13T06:28:58.904Z,30.53
2018-05-13T06:30:03.078Z,31.77
2018-05-13T06:31:07.245Z,33.30
2018-05-13T06:32:11.442Z,30.57
2018-05-13T06:33:15.625Z,31.13
2018-05-13T06:34:20.565Z,32.27
2018-05-13T06:35:25.505Z,32.37
2018-05-13T06:36:30.102Z,32.77
2018-05-13T06:37:35.148Z,33.47
2018-05-13T06:38:40.091Z,32.03
2018-05-13T06:39:44.335Z,33.77
2018-05-13T06:40:48.453Z,34.70
2018-05-13T06:41:52.636Z,34.87
2018-05-13T06:42:57.049Z,37.37
2018-05-13T06:44:01.228Z,35.30
2018-05-13T06:45:06.174Z,36.00
2018-05-13T06:46:10.344Z,35.67
2018-05-13T06:47:14.659Z,36.97
2018-05-13T06:48:23.867Z,34.83
2018-05-13T06:49:30.889Z,38.77
2018-05-13T06:50:35.088Z,38.13
2018-05-13T06:51:40.025Z,37.00
2018-05-13T06:52:44.329Z,36.40
2018-05-13T06:53:49.270Z,35.43
2018-05-13T06:54:53.441Z,36.00
2018-05-13T06:55:57.628Z,37.17
2018-05-13T06:57:01.808Z,37.97
2018-05-13T06:58:06.008Z,40.20
2018-05-13T06:59:10.189Z,40.63
2018-05-13T07:00:14.369Z,37.73
2018-05-13T07:01:18.541Z,38.50
2018-05-13T07:02:22.747Z,38.50
2018-05-13T07:03:26.942Z,41.40
2018-05-13T07:04:31.122Z,40.60
2018-05-13T07:05:37.726Z,41.97
2018-05-13T07:06:41.910Z,39.63
2018-05-13T07:07:46.712Z,37.53
2018-05-13T07:08:50.901Z,38.93
2018-05-13T07:09:55.069Z,41.07
2018-05-13T07:11:00.138Z,38.97
2018-05-13T07:12:05.972Z,41.00
2018-05-13T07:13:10.148Z,40.20
2018-05-13T07:14:14.430Z,41.57
2018-05-13T07:15:18.621Z,37.30
2018-05-13T07:16:22.949Z,41.10
2018-05-13T07:17:27.121Z,39.57
2018-05-13T07:18:32.055Z,41.07
2018-05-13T07:19:36.338Z,39.10
2018-05-13T07:20:40.519Z,39.10
2018-05-13T07:21:44.758Z,40.10
2018-05-13T07:22:48.924Z,39.57
2018-05-13T07:23:53.092Z,37.00
2018-05-13T07:24:58.024Z,36.63
2018-05-13T07:26:02.962Z,37.30
2018-05-13T07:27:07.683Z,36.70
2018-05-13T07:28:12.626Z,40.47
2018-05-13T07:29:16.897Z,37.87
2018-05-13T07:30:21.002Z,37.30
2018-05-13T07:31:25.186Z,37.17
2018-05-13T07:32:29.505Z,37.90
2018-05-13T07:33:33.687Z,35.37
2018-05-13T07:34:37.874Z,35.37
2018-05-13T07:35:42.814Z,35.37
2018-05-13T07:36:47.185Z,35.53
2018-05-13T07:37:52.302Z,36.10
2018-05-13T07:38:57.790Z,36.10
2018-05-13T07:40:01.961Z,34.60
2018-05-13T07:41:06.214Z,34.77
2018-05-13T07:42:10.397Z,36.37
2018-05-13T07:43:14.565Z,35.10
2018-05-13T07:44:19.257Z,34.63
2018-05-13T07:45:23.442Z,31.87
2018-05-13T07:46:27.679Z,34.90
2018-05-13T07:47:31.852Z,33.13
2018-05-13T07:48:36.017Z,35.70
2018-05-13T07:49:40.327Z,33.70
2018-05-13T07:50:44.531Z,32.67
2018-05-13T07:51:48.696Z,34.07
2018-05-13T07:52:52.865Z,35.47
2018-05-13T07:53:57.053Z,32.97
2018-05-13T07:55:01.281Z,28.30
2018-05-13T07:56:05.470Z,28.60
2018-05-13T07:57:09.683Z,29.77
2018-05-13T07:58:13.864Z,32.50
2018-05-13T07:59:18.046Z,32.10
2018-05-13T08:00:22.221Z,30.37
2018-05-13T08:01:26.400Z,28.90
2018-05-13T08:02:31.388Z,30.17
2018-05-13T08:03:35.678Z,31.10
2018-05-13T08:04:41.781Z,31.30
2018-05-13T08:05:46.013Z,30.90
2018-05-13T08:06:50.960Z,30.17
2018-05-13T08:07:55.601Z,32.00
2018-05-13T08:08:59.790Z,33.03
2018-05-13T08:10:04.000Z,32.53
2018-05-13T08:11:08.191Z,32.83
2018-05-13T08:12:13.131Z,32.77
2018-05-13T08:13:18.456Z,32.33
2018-05-13T08:14:23.398Z,32.77
2018-05-13T08:15:27.600Z,30.40
2018-05-13T08:16:32.541Z,33.90
2018-05-13T08:17:36.723Z,32.57
2018-05-13T08:18:41.748Z,31.90
2018-05-13T08:19:45.921Z,32.87
2018-05-13T08:20:50.154Z,33.10
2018-05-13T08:21:54.289Z,32.40
2018-05-13T08:22:59.256Z,32.70
2018-05-13T08:24:03.452Z,31.57
2018-05-13T08:25:07.654Z,32.37
2018-05-13T08:26:11.917Z,30.23
2018-05-13T08:27:16.436Z,32.13
2018-05-13T08:28:20.623Z,31.60
2018-05-13T08:29:31.097Z,31.07
2018-05-13T08:30:35.283Z,29.97
2018-05-13T08:31:39.485Z,29.80
2018-05-13T08:32:43.662Z,29.70
2018-05-13T08:33:47.884Z,28.97
2018-05-13T08:34:52.654Z,29.67
2018-05-13T08:35:56.828Z,29.70
2018-05-13T08:37:01.004Z,29.40
2018-05-13T08:38:05.191Z,28.80
2018-05-13T08:39:09.369Z,28.10
2018-05-13T08:40:13.569Z,27.50
2018-05-13T08:41:17.744Z,29.43
2018-05-13T08:42:21.973Z,28.57
2018-05-13T08:43:26.917Z,27.97
2018-05-13T08:44:31.109Z,28.73
2018-05-13T08:45:36.145Z,29.60
2018-05-13T08:46:41.081Z,29.93
2018-05-13T08:47:46.022Z,28.67
2018-05-13T08:48:50.201Z,30.10
2018-05-13T08:49:54.369Z,30.37
2018-05-13T08:50:58.597Z,27.30
2018-05-13T08:52:02.773Z,27.30
2018-05-13T08:53:06.997Z,28.30
2018-05-13T08:54:11.173Z,27.50
2018-05-13T08:55:15.349Z,27.60
2018-05-13T08:56:19.565Z,27.60
2018-05-13T08:57:23.762Z,28.23
2018-05-13T08:58:27.933Z,26.97
2018-05-13T08:59:32.197Z,25.37
2018-05-13T09:00:36.313Z,25.67
2018-05-13T09:01:40.487Z,26.10
2018-05-13T09:02:44.819Z,24.80
2018-05-13T09:03:48.986Z,27.07
2018-05-13T09:04:53.201Z,24.77
2018-05-13T09:05:57.403Z,25.70
2018-05-13T09:07:01.588Z,27.23
2018-05-13T09:08:06.581Z,25.53
2018-05-13T09:09:10.771Z,28.07
2018-05-13T09:10:14.967Z,24.60
2018-05-13T09:11:19.149Z,26.23
2018-05-13T09:12:24.123Z,28.17
2018-05-13T09:13:28.458Z,28.70
2018-05-13T09:14:32.647Z,27.30
2018-05-13T09:15:36.829Z,28.67
2018-05-13T09:16:41.038Z,28.20
2018-05-13T09:17:45.239Z,26.27
2018-05-13T09:18:50.246Z,26.23
2018-05-13T09:19:54.418Z,27.30
2018-05-13T09:20:58.680Z,28.20
2018-05-13T09:22:02.803Z,27.00
2018-05-13T09:23:06.971Z,26.67
2018-05-13T09:24:11.194Z,26.90
2018-05-13T09:25:15.568Z,26.57
2018-05-13T09:26:19.742Z,29.23
2018-05-13T09:27:24.690Z,26.73
2018-05-13T09:28:28.875Z,26.57
2018-05-13T09:29:33.837Z,27.17
2018-05-13T09:30:38.009Z,28.63
2018-05-13T09:31:42.180Z,28.00
2018-05-13T09:32:46.361Z,29.13
2018-05-13T09:33:50.690Z,28.03
2018-05-13T09:34:54.869Z,27.60
2018-05-13T09:36:01.863Z,27.07
2018-05-13T09:37:06.058Z,29.00
2018-05-13T09:38:10.230Z,27.80
2018-05-13T09:39:14.446Z,28.43
2018-05-13T09:40:18.634Z,28.43
2018-05-13T09:41:22.816Z,28.07
2018-05-13T09:42:27.012Z,27.20
2018-05-13T09:43:31.202Z,27.57
2018-05-13T09:44:36.170Z,28.43
2018-05-13T09:45:40.348Z,26.43
2018-05-13T09:46:45.313Z,24.87
2018-05-13T09:47:49.494Z,30.00
2018-05-13T09:48:53.698Z,26.80
2018-05-13T09:49:58.671Z,21.43
2018-05-13T09:51:02.846Z,21.63
2018-05-13T09:52:07.035Z,19.23
2018-05-13T09:53:11.991Z,21.90
2018-05-13T09:54:16.591Z,22.43
2018-05-13T09:55:20.813Z,21.80
2018-05-13T09:56:24.998Z,20.07
2018-05-13T09:57:29.166Z,16.03
2018-05-13T09:58:33.362Z,15.13
2018-05-13T09:59:37.581Z,19.00
2018-05-13T10:00:41.814Z,20.67
2018-05-13T10:01:45.990Z,20.50
2018-05-13T10:02:50.165Z,18.80
2018-05-13T10:03:55.110Z,20.53
2018-05-13T10:04:59.315Z,20.77
2018-05-13T10:06:04.307Z,20.67
2018-05-13T10:07:08.500Z,19.00
2018-05-13T10:08:12.773Z,20.57
2018-05-13T10:09:16.959Z,19.83
2018-05-13T10:10:21.913Z,20.53
2018-05-13T10:11:26.122Z,18.67
2018-05-13T10:12:30.337Z,21.63
2018-05-13T10:13:34.514Z,19.60
2018-05-13T10:14:39.462Z,19.00
2018-05-13T10:15:43.641Z,16.50
2018-05-13T10:16:47.876Z,16.00
2018-05-13T10:17:52.812Z,16.00
2018-05-13T10:18:57.746Z,13.00
2018-05-13T10:20:02.694Z,14.97
2018-05-13T10:21:06.873Z,16.80
2018-05-13T10:22:11.846Z,14.30
2018-05-13T10:23:16.022Z,11.50
2018-05-13T10:24:20.202Z,11.03
2018-05-13T10:25:24.402Z,12.87
2018-05-13T10:26:28.590Z,15.63
2018-05-13T10:27:32.821Z,13.90
2018-05-13T10:28:37.016Z,14.77
2018-05-13T10:29:41.225Z,15.27
2018-05-13T10:30:45.544Z,15.27
2018-05-13T10:31:51.149Z,15.30
2018-05-13T10:32:56.049Z,16.20
2018-05-13T10:34:01.020Z,17.30
2018-05-13T10:35:05.198Z,17.07
2018-05-13T10:36:10.199Z,16.87
2018-05-13T10:37:14.376Z,18.80
2018-05-13T10:38:19.161Z,15.90
2018-05-13T10:39:23.407Z,15.10
2018-05-13T10:40:27.905Z,15.60
2018-05-13T10:41:32.126Z,14.40
2018-05-13T10:42:36.319Z,14.90
2018-05-13T10:43:41.271Z,16.20
2018-05-13T10:44:45.449Z,15.50
2018-05-13T10:45:50.409Z,14.33
2018-05-13T10:46:54.992Z,14.23
2018-05-13T10:47:59.933Z,14.03
2018-05-13T10:49:04.117Z,14.20
2018-05-13T10:50:08.290Z,12.43
2018-05-13T10:51:12.467Z,14.40
2018-05-13T10:52:16.701Z,14.80
2018-05-13T10:53:20.883Z,14.40
2018-05-13T10:54:25.837Z,14.80
2018-05-13T10:55:30.010Z,13.90
2018-05-13T10:56:34.941Z,15.20
2018-05-13T10:57:39.987Z,14.80
2018-05-13T10:58:44.911Z,16.00
2018-05-13T10:59:49.081Z,13.10
2018-05-13T11:00:53.257Z,14.73
2018-05-13T11:01:57.858Z,13.27
2018-05-13T11:03:02.097Z,13.37
2018-05-13T11:04:06.269Z,16.57
2018-05-13T11:05:11.262Z,16.00
2018-05-13T11:06:15.467Z,14.10
2018-05-13T11:07:20.617Z,14.40
2018-05-13T11:08:24.861Z,15.47
2018-05-13T11:09:29.033Z,15.60
2018-05-13T11:10:33.210Z,15.10
2018-05-13T11:11:37.387Z,13.20
2018-05-13T11:12:41.570Z,15.27
2018-05-13T11:13:45.778Z,14.70
2018-05-13T11:14:49.959Z,14.43
2018-05-13T11:15:54.142Z,15.93
2018-05-13T11:16:58.325Z,13.00
2018-05-13T11:18:03.256Z,14.63
2018-05-13T11:19:08.550Z,15.43
2018-05-13T11:20:12.815Z,15.67
2018-05-13T11:21:16.950Z,14.80
2018-05-13T11:22:21.800Z,15.60
2018-05-13T11:23:26.104Z,17.30
2018-05-13T11:24:30.851Z,15.90
2018-05-13T11:25:41.262Z,15.93
2018-05-13T11:26:47.568Z,16.87
2018-05-13T11:27:52.787Z,15.40
2018-05-13T11:28:57.959Z,15.80
2018-05-13T11:30:02.157Z,17.40
2018-05-13T11:31:06.337Z,16.00
2018-05-13T11:32:10.526Z,15.40
2018-05-13T11:33:14.732Z,19.10
2018-05-13T11:34:18.920Z,17.83
2018-05-13T11:35:23.084Z,18.50
2018-05-13T11:36:27.258Z,18.40
2018-05-13T11:37:32.198Z,17.80
2018-05-13T11:38:36.507Z,18.70
2018-05-13T11:39:40.694Z,19.27
2018-05-13T11:40:44.886Z,18.90
2018-05-13T11:41:49.061Z,19.93
2018-05-13T11:42:53.233Z,19.50
2018-05-13T11:43:58.253Z,20.00
2018-05-13T11:45:03.204Z,22.33
2018-05-13T11:46:07.378Z,21.10
2018-05-13T11:47:11.547Z,19.20
2018-05-13T11:48:15.717Z,20.07
2018-05-13T11:49:20.718Z,20.47
2018-05-13T11:50:24.904Z,19.70
2018-05-13T11:51:29.072Z,19.80
2018-05-13T11:52:34.014Z,18.70
2018-05-13T11:53:38.185Z,20.83
2018-05-13T11:54:42.782Z,19.10
2018-05-13T11:55:46.949Z,20.20
2018-05-13T11:56:51.121Z,18.30
2018-05-13T11:57:55.302Z,17.07
2018-05-13T11:58:59.483Z,18.90
2018-05-13T12:00:03.693Z,20.30
2018-05-13T12:01:07.861Z,18.60
2018-05-13T12:02:12.092Z,18.00
2018-05-13T12:03:17.042Z,18.70
2018-05-13T12:04:21.249Z,18.97
2018-05-13T12:05:25.549Z,20.03
2018-05-13T12:06:30.480Z,20.37
2018-05-13T12:07:35.417Z,19.50
2018-05-13T12:08:39.602Z,20.20
2018-05-13T12:09:43.777Z,21.20
2018-05-13T12:10:47.973Z,21.30
2018-05-13T12:11:52.161Z,20.90
2018-05-13T12:12:56.344Z,18.60
2018-05-13T12:14:00.518Z,20.40
2018-05-13T12:15:04.748Z,19.30
2018-05-13T12:16:08.937Z,20.33
2018-05-13T12:17:13.143Z,19.00
2018-05-13T12:18:17.312Z,19.00
2018-05-13T12:19:22.277Z,19.47
2018-05-13T12:20:26.445Z,18.97
2018-05-13T12:21:31.382Z,21.63
2018-05-13T12:22:35.586Z,19.63
2018-05-13T12:23:41.601Z,19.07
2018-05-13T12:24:46.254Z,20.00
2018-05-13T12:25:51.208Z,19.80
2018-05-13T12:26:55.383Z,20.90
2018-05-13T12:27:59.549Z,19.37
2018-05-13T12:29:03.766Z,21.57
2018-05-13T12:30:08.289Z,19.20
2018-05-13T12:31:12.461Z,18.70
2018-05-13T12:32:16.634Z,17.57
2018-05-13T12:33:20.813Z,17.83
2018-05-13T12:34:25.002Z,19.07
2018-05-13T12:35:29.220Z,17.97
2018-05-13T12:36:33.454Z,18.13
2018-05-13T12:37:37.629Z,18.10
2018-05-13T12:38:41.812Z,19.37
2018-05-13T12:39:46.755Z,20.00
2018-05-13T12:40:51.783Z,20.17
2018-05-13T12:41:56.081Z,19.13
2018-05-13T12:43:01.029Z,19.70
2018-05-13T12:44:05.219Z,19.60
2018-05-13T12:45:10.152Z,18.90
2018-05-13T12:46:15.094Z,18.93
2018-05-13T12:47:19.325Z,20.60
2018-05-13T12:48:23.517Z,20.40
2018-05-13T12:49:27.725Z,18.43
2018-05-13T12:50:31.906Z,19.10
2018-05-13T12:51:36.078Z,18.57
2018-05-13T12:52:40.265Z,20.60
2018-05-13T12:53:44.485Z,19.73
2018-05-13T12:54:48.654Z,18.00
2018-05-13T12:55:52.881Z,19.97
2018-05-13T12:56:57.819Z,20.37
2018-05-13T12:58:02.003Z,21.77
2018-05-13T12:59:07.141Z,20.20
2018-05-13T13:00:11.346Z,21.60
2018-05-13T13:01:15.513Z,19.90
2018-05-13T13:02:19.684Z,18.80
2018-05-13T13:03:24.009Z,21.60
2018-05-13T13:04:28.395Z,22.17
2018-05-13T13:05:32.594Z,20.90
2018-05-13T13:06:36.761Z,21.97
2018-05-13T13:07:40.976Z,21.77
2018-05-13T13:08:45.137Z,22.27
2018-05-13T13:09:50.097Z,24.10
2018-05-13T13:10:54.289Z,25.07
2018-05-13T13:11:59.291Z,25.47
2018-05-13T13:13:03.540Z,24.07
2018-05-13T13:14:08.121Z,22.43
2018-05-13T13:15:12.358Z,24.63
2018-05-13T13:16:16.529Z,22.63
2018-05-13T13:17:20.745Z,22.13
2018-05-13T13:18:24.941Z,21.17
2018-05-13T13:19:29.138Z,20.70
2018-05-13T13:20:33.330Z,24.30
2018-05-13T13:21:37.506Z,22.93
2018-05-13T13:22:42.882Z,23.53
2018-05-13T13:23:47.045Z,25.80
2018-05-13T13:24:52.721Z,25.30
2018-05-13T13:25:56.895Z,26.90
2018-05-13T13:27:01.855Z,26.37
2018-05-13T13:28:06.057Z,26.77
2018-05-13T13:29:10.279Z,27.63
2018-05-13T13:30:14.457Z,25.57
2018-05-13T13:31:20.136Z,28.17
2018-05-13T13:32:24.536Z,28.33
2018-05-13T13:33:29.522Z,27.00
2018-05-13T13:34:34.241Z,26.03
2018-05-13T13:35:38.470Z,25.13
2018-05-13T13:36:42.716Z,25.70
2018-05-13T13:37:47.647Z,24.87
2018-05-13T13:38:52.590Z,26.50
2018-05-13T13:39:56.794Z,25.23
2018-05-13T13:41:01.044Z,23.60
2018-05-13T13:42:05.754Z,24.73
2018-05-13T13:43:09.980Z,27.47
2018-05-13T13:44:14.164Z,36.17
2018-05-13T13:45:18.402Z,36.27
2018-05-13T13:46:22.597Z,38.60
2018-05-13T13:47:26.770Z,36.13
2018-05-13T13:48:31.701Z,40.17
2018-05-13T13:49:35.869Z,46.07
2018-05-13T13:50:40.061Z,45.23
2018-05-13T13:51:44.728Z,43.40
2018-05-13T13:52:49.667Z,46.10
2018-05-13T13:53:54.617Z,44.40